createdAt,value
2019-02-26T00:01:28.591Z,98681.44
2019-02-26T00:03:59.543Z,98686.22
2019-02-26T00:06:30.744Z,98676.87
2019-02-26T00:09:03.797Z,98675.27
2019-02-26T00:11:37.996Z,98673.98
2019-02-26T00:14:13.176Z,98676.72
2019-02-26T00:16:42.407Z,98673.62
2019-02-26T00:19:14.482Z,98680.23
2019-02-26T00:21:47.456Z,98666.22
2019-02-26T00:24:18.529Z,98658.01
2019-02-26T00:26:49.753Z,98666.22
2019-02-26T00:29:21.509Z,98664.63
2019-02-26T00:31:56.114Z,98660.13
2019-02-26T00:34:27.486Z,98652.06
2019-02-26T00:36:59.492Z,98658.32
2019-02-26T00:39:31.601Z,98651.91
2019-02-26T00:42:05.188Z,98646.58
2019-02-26T00:44:37.260Z,98645.37
2019-02-26T00:47:09.056Z,98642.41
2019-02-26T00:49:41.906Z,98637.78
2019-02-26T00:52:13.380Z,98634.27
2019-02-26T00:54:45.683Z,98638.69
2019-02-26T00:57:16.780Z,98635.55
2019-02-26T00:59:48.138Z,98634.50
2019-02-26T01:02:20.172Z,98633.12
2019-02-26T01:04:51.224Z,98623.47
2019-02-26T01:07:23.845Z,98617.98
2019-02-26T01:09:56.898Z,98605.35
2019-02-26T01:12:28.041Z,98588.92
2019-02-26T01:14:59.080Z,98585.91
2019-02-26T01:17:31.263Z,98580.42
2019-02-26T01:20:05.337Z,98574.64
2019-02-26T01:22:37.755Z,98574.17
2019-02-26T01:25:12.683Z,98571.00
2019-02-26T01:27:47.600Z,98570.69
2019-02-26T01:30:20.716Z,98581.95
2019-02-26T01:32:49.657Z,98583.01
2019-02-26T01:35:20.720Z,98578.59
2019-02-26T01:37:53.666Z,98575.27
2019-02-26T01:40:25.829Z,98567.05
2019-02-26T01:42:57.910Z,98572.80
2019-02-26T01:45:32.262Z,98556.38
2019-02-26T01:48:04.120Z,98561.34
2019-02-26T01:50:36.131Z,98562.47
2019-02-26T01:53:08.208Z,98551.38
2019-02-26T01:55:39.795Z,98550.90
2019-02-26T01:58:15.931Z,98548.86
2019-02-26T02:00:44.963Z,98546.52
2019-02-26T02:03:16.145Z,98545.58
2019-02-26T02:05:47.967Z,98527.20
2019-02-26T02:08:22.422Z,98524.70
2019-02-26T02:10:56.243Z,98521.87
2019-02-26T02:13:28.307Z,98514.72
2019-02-26T02:15:59.807Z,98513.27
2019-02-26T02:18:34.091Z,98509.40
2019-02-26T02:21:05.159Z,98501.61
2019-02-26T02:23:36.234Z,98498.59
2019-02-26T02:26:09.407Z,98496.30
2019-02-26T02:28:40.146Z,98487.94
2019-02-26T02:31:11.290Z,98483.24
2019-02-26T02:33:42.503Z,98482.18
2019-02-26T02:36:15.106Z,98474.80
2019-02-26T02:38:46.384Z,98464.46
2019-02-26T02:41:17.435Z,98466.58
2019-02-26T02:43:49.540Z,98464.08
2019-02-26T02:46:20.640Z,98457.55
2019-02-26T02:48:51.732Z,98464.66
2019-02-26T02:51:22.807Z,98462.16
2019-02-26T02:53:56.476Z,98446.87
2019-02-26T02:56:26.732Z,98445.50
2019-02-26T02:58:57.819Z,98438.66
2019-02-26T03:01:28.884Z,98428.48
2019-02-26T03:04:01.110Z,98432.98
2019-02-26T03:06:36.038Z,98420.86
2019-02-26T03:09:11.634Z,98421.64
2019-02-26T03:11:44.540Z,98423.59
2019-02-26T03:14:16.641Z,98431.95
2019-02-26T03:16:50.495Z,98428.33
2019-02-26T03:19:20.714Z,98428.63
2019-02-26T03:21:52.624Z,98437.59
2019-02-26T03:24:26.300Z,98428.33
2019-02-26T03:26:57.403Z,98420.28
2019-02-26T03:29:28.580Z,98412.45
2019-02-26T03:31:59.654Z,98407.80
2019-02-26T03:34:30.859Z,98401.28
2019-02-26T03:37:03.870Z,98398.23
2019-02-26T03:39:34.696Z,98404.33
2019-02-26T03:42:05.814Z,98404.33
2019-02-26T03:44:36.902Z,98399.98
2019-02-26T03:47:07.972Z,98401.70
2019-02-26T03:49:41.719Z,98398.14
2019-02-26T03:52:15.329Z,98370.38
2019-02-26T03:54:45.942Z,98370.24
2019-02-26T03:57:19.379Z,98362.03
2019-02-26T03:59:50.132Z,98360.35
2019-02-26T04:02:23.506Z,98353.69
2019-02-26T04:04:56.560Z,98346.60
2019-02-26T04:07:28.357Z,98351.77
2019-02-26T04:09:59.624Z,98353.69
2019-02-26T04:12:36.053Z,98348.04
2019-02-26T04:15:04.217Z,98357.97
2019-02-26T04:17:36.820Z,98347.49
2019-02-26T04:20:09.938Z,98368.27
2019-02-26T04:22:42.891Z,98356.25
2019-02-26T04:25:30.608Z,98354.88
2019-02-26T04:28:19.265Z,98344.69
2019-02-26T04:30:59.557Z,98347.28
2019-02-26T04:33:53.737Z,98350.40
2019-02-26T04:36:27.888Z,98346.20
2019-02-26T04:39:27.491Z,98342.70
2019-02-26T04:42:16.829Z,98335.72
2019-02-26T04:45:09.056Z,98326.38
2019-02-26T04:47:42.754Z,98321.80
2019-02-26T04:50:13.814Z,98321.11
2019-02-26T04:52:44.900Z,98324.47
2019-02-26T04:55:15.896Z,98309.95
2019-02-26T04:57:49.079Z,98311.84
2019-02-26T05:00:19.727Z,98282.96
2019-02-26T05:02:50.816Z,98280.05
2019-02-26T05:05:22.396Z,98285.39
2019-02-26T05:07:54.443Z,98279.77
2019-02-26T05:10:27.023Z,98279.84
2019-02-26T05:13:01.070Z,98265.78
2019-02-26T05:15:33.186Z,98254.16
2019-02-26T05:18:03.847Z,98262.87
2019-02-26T05:20:40.115Z,98259.70
2019-02-26T05:23:10.813Z,98262.50
2019-02-26T05:25:44.317Z,98259.39
2019-02-26T05:28:17.522Z,98263.80
2019-02-26T05:30:49.550Z,98257.81
2019-02-26T05:33:21.734Z,98249.81
2019-02-26T05:35:52.986Z,98266.16
2019-02-26T05:38:26.434Z,98254.01
2019-02-26T05:40:56.933Z,98249.74
2019-02-26T05:43:28.840Z,98243.27
2019-02-26T05:46:03.856Z,98248.13
2019-02-26T05:48:33.578Z,98236.88
2019-02-26T05:51:05.670Z,98248.61
2019-02-26T05:53:37.495Z,98245.88
2019-02-26T05:56:09.721Z,98235.06
2019-02-26T05:58:44.081Z,98235.67
2019-02-26T06:01:16.248Z,98232.84
2019-02-26T06:03:49.699Z,98226.33
2019-02-26T06:06:19.655Z,98227.37
2019-02-26T06:08:50.774Z,98223.66
2019-02-26T06:11:21.860Z,98222.44
2019-02-26T06:13:55.539Z,98219.16
2019-02-26T06:16:27.136Z,98206.47
2019-02-26T06:18:58.533Z,98201.78
2019-02-26T06:21:29.594Z,98206.47
2019-02-26T06:24:00.708Z,98202.36
2019-02-26T06:26:33.317Z,98198.56
2019-02-26T06:29:04.626Z,98176.09
2019-02-26T06:31:37.676Z,98187.92
2019-02-26T06:34:09.332Z,98189.29
2019-02-26T06:36:42.085Z,98196.67
2019-02-26T06:39:14.044Z,98190.28
2019-02-26T06:41:46.740Z,98186.53
2019-02-26T06:44:17.885Z,98191.67
2019-02-26T06:46:48.951Z,98180.41
2019-02-26T06:49:22.309Z,98172.72
2019-02-26T06:51:54.310Z,98161.78
2019-02-26T06:54:27.142Z,98151.69
2019-02-26T06:56:58.157Z,98160.20
2019-02-26T06:59:32.466Z,98153.94
2019-02-26T07:02:03.665Z,98150.45
2019-02-26T07:04:34.846Z,98137.34
2019-02-26T07:07:07.402Z,98141.27
2019-02-26T07:09:39.175Z,98137.64
2019-02-26T07:12:11.445Z,98138.70
2019-02-26T07:14:42.610Z,98138.70
2019-02-26T07:17:13.664Z,98115.05
2019-02-26T07:19:44.783Z,98127.00
2019-02-26T07:22:16.506Z,98121.80
2019-02-26T07:24:49.690Z,98110.34
2019-02-26T07:27:21.377Z,98110.09
2019-02-26T07:29:52.532Z,98113.41
2019-02-26T07:32:24.629Z,98105.20
2019-02-26T07:34:55.687Z,98106.05
2019-02-26T07:37:28.692Z,98102.25
2019-02-26T07:39:59.681Z,98099.27
2019-02-26T07:42:32.738Z,98094.95
2019-02-26T07:45:03.841Z,98089.48
2019-02-26T07:47:36.392Z,98087.87
2019-02-26T07:50:12.296Z,98088.17
2019-02-26T07:52:42.693Z,98087.37
2019-02-26T07:55:16.822Z,98083.27
2019-02-26T07:57:48.907Z,98076.36
2019-02-26T08:00:21.636Z,98075.78
2019-02-26T08:02:56.387Z,98082.84
2019-02-26T08:05:26.794Z,98076.23
2019-02-26T08:07:59.431Z,98067.21
2019-02-26T08:10:30.627Z,98072.14
2019-02-26T08:13:03.411Z,98072.69
2019-02-26T08:15:35.298Z,98060.88
2019-02-26T08:18:07.327Z,98068.33
2019-02-26T08:20:40.291Z,98055.25
2019-02-26T08:23:11.974Z,98057.83
2019-02-26T08:25:43.059Z,98055.06
2019-02-26T08:28:15.437Z,98048.02
2019-02-26T08:30:47.923Z,98039.51
2019-02-26T08:33:19.791Z,98039.51
2019-02-26T08:35:55.534Z,98043.94
2019-02-26T08:38:24.627Z,98044.44
2019-02-26T08:40:57.456Z,98036.16
2019-02-26T08:43:28.525Z,98036.11
2019-02-26T08:45:59.610Z,98030.73
2019-02-26T08:48:30.665Z,98037.39
2019-02-26T08:51:05.362Z,98033.55
2019-02-26T08:53:34.454Z,98031.98
2019-02-26T08:56:05.565Z,98036.34
2019-02-26T08:58:36.694Z,98029.30
2019-02-26T09:01:07.880Z,98025.44
2019-02-26T09:03:40.917Z,98020.88
2019-02-26T09:06:13.650Z,98026.31
2019-02-26T09:08:44.515Z,98024.67
2019-02-26T09:11:15.630Z,98027.67
2019-02-26T09:13:46.684Z,98021.33
2019-02-26T09:16:19.931Z,98032.76
2019-02-26T09:18:50.685Z,98025.04
2019-02-26T09:21:22.844Z,98025.64
2019-02-26T09:23:57.075Z,98021.80
2019-02-26T09:26:27.726Z,98022.95
2019-02-26T09:28:58.782Z,98020.06
2019-02-26T09:31:29.921Z,98030.12
2019-02-26T09:34:01.017Z,98023.22
2019-02-26T09:36:33.151Z,98025.19
2019-02-26T09:39:06.294Z,98023.80
2019-02-26T09:41:40.221Z,98023.47
2019-02-26T09:44:11.723Z,98026.80
2019-02-26T09:46:43.932Z,98023.61
2019-02-26T09:49:15.091Z,98029.44
2019-02-26T09:51:47.774Z,98028.46
2019-02-26T09:54:20.700Z,98028.26
2019-02-26T09:56:51.691Z,98023.98
2019-02-26T09:59:22.796Z,98027.20
2019-02-26T10:01:54.716Z,98022.88
2019-02-26T10:04:28.933Z,98025.61
2019-02-26T10:07:02.301Z,98015.50
2019-02-26T10:09:37.404Z,98012.81
2019-02-26T10:12:12.296Z,98011.69
2019-02-26T10:14:41.406Z,98011.75
2019-02-26T10:17:14.195Z,98011.54
2019-02-26T10:19:45.308Z,98007.98
2019-02-26T10:22:16.425Z,98009.56
2019-02-26T10:24:47.499Z,98010.11
2019-02-26T10:27:18.640Z,98012.91
2019-02-26T10:29:50.011Z,98014.02
2019-02-26T10:32:21.101Z,98011.84
2019-02-26T10:34:52.179Z,98011.31
2019-02-26T10:37:23.290Z,98011.58
2019-02-26T10:39:54.944Z,98018.57
2019-02-26T10:42:26.177Z,98013.90
2019-02-26T10:44:57.298Z,98012.58
2019-02-26T10:47:29.775Z,98019.89
2019-02-26T10:50:01.235Z,98022.27
2019-02-26T10:52:32.635Z,98019.39
2019-02-26T10:55:04.278Z,98015.91
2019-02-26T10:57:36.144Z,98018.85
2019-02-26T11:00:11.280Z,98018.26
2019-02-26T11:02:46.151Z,98018.45
2019-02-26T11:05:21.511Z,98014.22
2019-02-26T11:07:49.757Z,98017.07
2019-02-26T11:10:22.684Z,98017.28
2019-02-26T11:12:56.234Z,98024.66
2019-02-26T11:15:30.171Z,98025.18
2019-02-26T11:18:00.295Z,98025.52
2019-02-26T11:20:34.052Z,98023.97
2019-02-26T11:23:07.978Z,98020.48
2019-02-26T11:25:39.980Z,98029.73
2019-02-26T11:28:13.006Z,98022.08
2019-02-26T11:30:44.795Z,98033.65
2019-02-26T11:33:16.737Z,98028.53
2019-02-26T11:35:49.428Z,98038.82
2019-02-26T11:38:22.043Z,98037.11
2019-02-26T11:40:53.392Z,98038.06
2019-02-26T11:43:26.957Z,98037.77
2019-02-26T11:45:59.193Z,98043.44
2019-02-26T11:48:32.729Z,98041.82
2019-02-26T11:51:03.306Z,98038.33
2019-02-26T11:53:34.423Z,98050.80
2019-02-26T11:56:05.550Z,98047.31
2019-02-26T11:58:36.692Z,98044.70
2019-02-26T12:01:08.670Z,98053.63
2019-02-26T12:03:41.664Z,98058.89
2019-02-26T12:06:12.558Z,98053.93
2019-02-26T12:08:44.899Z,98059.80
2019-02-26T12:11:18.265Z,98055.11
2019-02-26T12:13:53.044Z,98061.21
2019-02-26T12:16:23.048Z,98073.60
2019-02-26T12:18:54.141Z,98074.25
2019-02-26T12:21:27.411Z,98071.19
2019-02-26T12:24:00.575Z,98068.58
2019-02-26T12:26:30.919Z,98071.40
2019-02-26T12:29:04.314Z,98075.41
2019-02-26T12:31:36.966Z,98071.28
2019-02-26T12:34:09.167Z,98082.44
2019-02-26T12:36:40.441Z,98082.19
2019-02-26T12:39:11.544Z,98079.87
2019-02-26T12:41:45.394Z,98079.30
2019-02-26T12:44:16.231Z,98079.74
2019-02-26T12:46:48.419Z,98075.53
2019-02-26T12:49:22.383Z,98085.22
2019-02-26T12:51:54.008Z,98083.13
2019-02-26T12:54:26.896Z,98075.91
2019-02-26T12:57:00.636Z,98083.97
2019-02-26T12:59:31.539Z,98089.92
2019-02-26T13:02:05.685Z,98082.47
2019-02-26T13:04:37.823Z,98082.59
2019-02-26T13:07:09.369Z,98090.36
2019-02-26T13:09:50.453Z,98097.92
2019-02-26T13:12:19.859Z,98105.68
2019-02-26T13:14:50.397Z,98094.48
2019-02-26T13:17:26.291Z,98098.64
2019-02-26T13:19:58.963Z,98110.08
2019-02-26T13:22:27.883Z,98100.31
2019-02-26T13:25:00.649Z,98102.63
2019-02-26T13:27:31.803Z,98109.58
2019-02-26T13:30:02.898Z,98108.42
2019-02-26T13:32:55.381Z,98110.73
2019-02-26T13:35:10.024Z,98111.89
2019-02-26T13:37:42.337Z,98115.07
2019-02-26T13:40:18.841Z,98119.75
2019-02-26T13:45:24.046Z,98117.27
2019-02-26T13:48:00.978Z,98122.19
2019-02-26T13:50:32.774Z,98131.25
2019-02-26T13:53:03.841Z,98128.13
2019-02-26T13:55:34.940Z,98136.14
2019-02-26T13:58:11.698Z,98125.84
2019-02-26T14:25:15.430Z,98151.16
2019-02-26T14:27:47.563Z,98152.23
2019-02-26T14:30:19.969Z,98150.66
2019-02-26T14:32:51.035Z,98151.23
2019-02-26T14:35:22.131Z,98141.74
2019-02-26T14:37:53.257Z,98159.80
2019-02-26T14:40:24.541Z,98157.91
2019-02-26T14:42:55.665Z,98164.56
2019-02-26T14:45:28.411Z,98153.31
2019-02-26T14:48:00.520Z,98160.61
2019-02-26T14:50:33.103Z,98157.73
2019-02-26T14:53:04.274Z,98175.75
2019-02-26T14:55:35.408Z,98172.52
2019-02-26T14:58:06.517Z,98174.59
2019-02-26T15:00:37.763Z,98180.19
2019-02-26T15:03:08.918Z,98184.60
2019-02-26T15:05:40.129Z,98200.77
2019-02-26T15:08:11.235Z,98190.91
2019-02-26T15:10:42.507Z,98196.70
2019-02-26T15:13:13.602Z,98208.17
2019-02-26T15:15:44.828Z,98210.11
2019-02-26T15:18:16.045Z,98215.95
2019-02-26T15:20:47.173Z,98213.50
2019-02-26T15:23:18.399Z,98214.58
2019-02-26T15:25:49.678Z,98220.83
2019-02-26T15:28:20.733Z,98228.30
2019-02-26T15:30:52.061Z,98231.61
2019-02-26T15:33:23.251Z,98239.89
2019-02-26T15:35:54.611Z,98249.48
2019-02-26T15:38:25.899Z,98249.44
2019-02-26T15:40:57.119Z,98256.84
2019-02-26T15:43:28.202Z,98261.63
2019-02-26T15:45:59.774Z,98266.97
2019-02-26T15:48:33.710Z,98270.79
2019-02-26T15:51:04.225Z,98269.97
2019-02-26T15:53:35.391Z,98280.59
2019-02-26T15:56:06.504Z,98265.23
2019-02-26T15:58:37.570Z,98276.28
2019-02-26T16:01:09.880Z,98277.33
2019-02-26T16:03:40.993Z,98290.44
2019-02-26T16:06:12.100Z,98293.79
2019-02-26T16:08:43.434Z,98303.82
2019-02-26T16:11:16.059Z,98307.52
2019-02-26T16:13:47.327Z,98316.60
2019-02-26T16:16:18.433Z,98313.41
2019-02-26T16:18:49.616Z,98322.20
2019-02-26T16:21:20.752Z,98323.22
2019-02-26T16:23:51.857Z,98331.97
2019-02-26T16:26:22.983Z,98331.39
2019-02-26T16:28:54.132Z,98329.77
2019-02-26T16:31:29.692Z,98333.53
2019-02-26T16:33:58.127Z,98328.05
2019-02-26T16:36:31.598Z,98330.80
2019-02-26T16:39:03.123Z,98338.62
2019-02-26T16:41:38.312Z,98335.08
2019-02-26T16:44:08.496Z,98342.73
2019-02-26T16:46:42.096Z,98343.61
2019-02-26T16:49:12.483Z,98345.59
2019-02-26T16:51:44.640Z,98343.66
2019-02-26T16:54:15.752Z,98347.56
2019-02-26T16:56:46.862Z,98344.88
2019-02-26T16:59:17.922Z,98348.17
2019-02-26T17:01:49.051Z,98350.66
2019-02-26T17:04:20.117Z,98366.55
2019-02-26T17:06:53.950Z,98366.55
2019-02-26T17:09:24.332Z,98357.83
2019-02-26T17:11:58.691Z,98378.52
2019-02-26T17:14:30.277Z,98382.58
2019-02-26T17:17:03.961Z,98375.97
2019-02-26T17:19:34.567Z,98381.40
2019-02-26T17:22:05.828Z,98387.02
2019-02-26T17:24:37.007Z,98382.60
2019-02-26T17:27:08.904Z,98392.70
2019-02-26T17:29:39.979Z,98379.86
2019-02-26T17:32:11.111Z,98382.96
2019-02-26T17:34:42.093Z,98383.97
2019-02-26T17:37:13.284Z,98393.52
2019-02-26T17:39:44.373Z,98395.44
2019-02-26T17:42:15.589Z,98404.44
2019-02-26T17:44:48.262Z,98410.23
2019-02-26T17:47:19.489Z,98408.36
2019-02-26T17:49:50.691Z,98412.97
2019-02-26T17:52:21.823Z,98406.72
2019-02-26T17:54:52.897Z,98417.97
2019-02-26T17:57:24.048Z,98417.22
2019-02-26T17:59:55.219Z,98418.04
2019-02-26T18:02:27.597Z,98412.28
2019-02-26T18:05:00.770Z,98434.23
2019-02-26T18:07:31.882Z,98432.86
2019-02-26T18:10:02.928Z,98433.13
2019-02-26T18:12:34.108Z,98437.16
2019-02-26T18:15:09.059Z,98428.12
2019-02-26T18:17:40.260Z,98443.58
2019-02-26T18:20:14.063Z,98440.02
2019-02-26T18:22:45.649Z,98449.50
2019-02-26T18:25:21.471Z,98453.13
2019-02-26T18:27:52.690Z,98455.87
2019-02-26T18:30:24.852Z,98457.73
2019-02-26T18:32:58.857Z,98455.26
2019-02-26T18:35:28.745Z,98470.53
2019-02-26T18:37:59.841Z,98478.18
2019-02-26T18:40:30.963Z,98473.23
2019-02-26T18:43:02.083Z,98467.69
2019-02-26T18:45:33.239Z,98467.81
2019-02-26T18:48:04.333Z,98478.48
2019-02-26T18:50:35.495Z,98476.04
2019-02-26T18:53:06.628Z,98473.99
2019-02-26T18:55:37.715Z,98488.25
2019-02-26T18:58:08.860Z,98487.00
2019-02-26T19:00:40.096Z,98485.19
2019-02-26T19:03:11.382Z,98487.90
2019-02-26T19:05:42.644Z,98498.31
2019-02-26T19:08:13.792Z,98501.41
2019-02-26T19:10:45.033Z,98502.64
2019-02-26T19:13:16.674Z,98506.76
2019-02-26T19:15:48.518Z,98504.56
2019-02-26T19:18:19.744Z,98515.15
2019-02-26T19:20:50.943Z,98515.77
2019-02-26T19:23:22.546Z,98516.08
2019-02-26T19:25:53.660Z,98521.03
2019-02-26T19:28:26.434Z,98527.23
2019-02-26T19:30:58.888Z,98528.84
2019-02-26T19:33:30.044Z,98517.81
2019-02-26T19:36:01.154Z,98518.56
2019-02-26T19:38:32.211Z,98518.94
2019-02-26T19:41:12.435Z,98522.74
2019-02-26T19:43:42.164Z,98523.56
2019-02-26T19:46:16.897Z,98523.73
2019-02-26T19:48:46.258Z,98530.81
2019-02-26T19:51:17.318Z,98525.41
2019-02-26T19:53:48.396Z,98518.42
2019-02-26T19:56:23.203Z,98527.94
2019-02-26T19:58:52.279Z,98527.89
2019-02-26T20:01:25.738Z,98526.28
2019-02-26T20:03:56.227Z,98526.05
2019-02-26T20:06:27.273Z,98527.04
2019-02-26T20:08:58.368Z,98532.75
2019-02-26T20:11:29.436Z,98530.09
2019-02-26T20:14:04.687Z,98531.77
2019-02-26T20:16:33.434Z,98528.10
2019-02-26T20:19:04.594Z,98529.12
2019-02-26T20:21:35.820Z,98523.33
2019-02-26T20:24:06.871Z,98530.80
2019-02-26T20:26:37.958Z,98523.95
2019-02-26T20:29:09.041Z,98530.25
2019-02-26T20:31:41.398Z,98535.19
2019-02-26T20:34:12.523Z,98533.98
2019-02-26T20:36:43.562Z,98543.48
2019-02-26T20:39:14.713Z,98539.69
2019-02-26T20:41:45.807Z,98540.83
2019-02-26T20:44:17.034Z,98539.14
2019-02-26T20:46:48.143Z,98547.67
2019-02-26T20:49:19.660Z,98542.36
2019-02-26T20:51:50.760Z,98546.23
2019-02-26T20:54:21.994Z,98530.81
2019-02-26T20:56:53.112Z,98540.23
2019-02-26T20:59:24.244Z,98539.93
2019-02-26T21:01:55.233Z,98538.56
2019-02-26T21:04:26.388Z,98543.14
2019-02-26T21:06:57.475Z,98541.45
2019-02-26T21:09:29.544Z,98541.45
2019-02-26T21:12:00.612Z,98537.04
2019-02-26T21:14:31.739Z,98538.09
2019-02-26T21:17:02.804Z,98536.73
2019-02-26T21:19:35.732Z,98540.84
2019-02-26T21:22:06.629Z,98539.11
2019-02-26T21:24:37.839Z,98541.08
2019-02-26T21:27:08.922Z,98539.19
2019-02-26T21:29:41.542Z,98540.80
2019-02-26T21:32:12.729Z,98540.84
2019-02-26T21:34:47.375Z,98551.75
2019-02-26T21:37:17.651Z,98537.51
2019-02-26T21:39:49.807Z,98544.91
2019-02-26T21:42:20.911Z,98544.05
2019-02-26T21:44:52.007Z,98535.83
2019-02-26T21:47:23.108Z,98545.41
2019-02-26T21:49:54.214Z,98550.38
2019-02-26T21:52:25.286Z,98551.13
2019-02-26T21:54:58.201Z,98557.43
2019-02-26T21:57:29.314Z,98568.69
2019-02-26T22:00:03.055Z,98567.02
2019-02-26T22:02:34.908Z,98565.44
2019-02-26T22:05:08.218Z,98570.61
2019-02-26T22:07:39.329Z,98560.95
2019-02-26T22:10:14.919Z,98562.00
2019-02-26T22:12:45.973Z,98562.91
2019-02-26T22:15:17.302Z,98569.16
2019-02-26T22:17:48.464Z,98563.45
2019-02-26T22:20:32.689Z,98562.91
2019-02-26T22:22:53.047Z,98567.25
2019-02-26T22:25:24.129Z,98571.59
2019-02-26T22:27:55.152Z,98573.27
2019-02-26T22:30:26.399Z,98575.39
2019-02-26T22:32:57.415Z,98574.02
2019-02-26T22:35:28.529Z,98569.63
2019-02-26T22:37:59.636Z,98581.72
2019-02-26T22:40:30.697Z,98570.22
2019-02-26T22:43:01.815Z,98573.50
2019-02-26T22:45:32.892Z,98573.78
2019-02-26T22:48:03.923Z,98586.06
2019-02-26T22:50:35.048Z,98580.11
2019-02-26T22:53:06.159Z,98583.33
2019-02-26T22:55:37.255Z,98584.97
2019-02-26T22:58:08.311Z,98576.24
2019-02-26T23:00:55.965Z,98577.84
2019-02-26T23:03:28.515Z,98581.95
2019-02-26T23:05:59.719Z,98581.64
2019-02-26T23:08:31.070Z,98588.48
2019-02-26T23:11:02.130Z,98587.95
2019-02-26T23:13:33.552Z,98588.17
2019-02-26T23:16:04.641Z,98597.45
2019-02-26T23:18:36.741Z,98601.28
2019-02-26T23:21:07.915Z,98590.09
2019-02-26T23:23:39.200Z,98601.28
2019-02-26T23:26:10.459Z,98604.30
2019-02-26T23:28:41.562Z,98607.34
2019-02-26T23:31:12.785Z,98610.91
2019-02-26T23:33:48.140Z,98612.51
2019-02-26T23:36:16.920Z,98609.49
2019-02-26T23:38:47.954Z,98613.59
2019-02-26T23:41:19.064Z,98622.09
2019-02-26T23:43:50.190Z,98615.56
2019-02-26T23:46:21.281Z,98617.98
2019-02-26T23:48:52.420Z,98620.72
2019-02-26T23:51:24.539Z,98613.87
2019-02-26T23:53:55.585Z,98622.41
2019-02-26T23:56:26.794Z,98620.21
2019-02-26T23:58:57.834Z,98620.64
